Junior — D5BZ4 — position and weather

sailwx.info

Track history (hours):
 
Tides and Currents Weather Stations Pressure Air Temp Water Temp Dewpoint Dewpoint Depression Visibility Wind Speed Wind Dir Waves Ship Positions

Junior

Last reported at 2017-Dec-03 12:42 UTC. Time now 2017-Dec-14 17:12 UTC.
Position N 36°52' W 075°51'.
Warning: this ship's position is 11 days out of date.

Length 229 m; draft 11.5 m.

Type: Ship. MMSI: 636015637.

Date/timePositionNaut miles runAvg speedWind from/ knotsBaromVisibWave heightAir tempDewpointWater temp
2017-Dec-03 12:42N 36°52' W 075°51'2 9.3
2017-Dec-03 12:27N 36°53' W 075°53'9 8.6
2017-Dec-03 11:24N 36°57' W 076°03'1 0.0
2017-Dec-02 06:15N 36°57' W 076°02'2 4.9
2017-Dec-02 05:50N 36°58' W 075°60'12512.8
2017-Dec-01 20:06N 39°01' W 076°23'911.7
2017-Dec-01 19:19N 39°10' W 076°26'310.9
2017-Dec-01 19:00N 39°12' W 076°30'5 9.0
2017-Dec-01 18:30N 39°15' W 076°34'0 0.9
2017-Dec-01 18:00N 39°15' W 076°34'0 0.0
2017-Dec-01 17:30N 39°15' W 076°34'0 0.0
2017-Dec-01 17:00N 39°15' W 076°34'0 0.0
2017-Dec-01 16:30N 39°15' W 076°34'0 0.0
2017-Dec-01 16:00N 39°15' W 076°34'0 0.0
2017-Dec-01 15:30N 39°15' W 076°34'0 0.0
2017-Dec-01 14:57N 39°15' W 076°34'0 0.0
2017-Dec-01 14:30N 39°15' W 076°34'0 0.0
2017-Dec-01 14:00N 39°15' W 076°34'0 0.0
2017-Dec-01 13:27N 39°15' W 076°34'0 0.0
2017-Dec-01 13:00N 39°15' W 076°34'0 0.0
2017-Dec-01 12:30N 39°15' W 076°34'0 0.0
2017-Dec-01 12:00N 39°15' W 076°34'0 0.0
2017-Dec-01 11:30N 39°15' W 076°34'0 0.0
2017-Dec-01 10:57N 39°15' W 076°34'0 0.0
2017-Dec-01 10:30N 39°15' W 076°34'0 0.0
2017-Dec-01 10:00N 39°15' W 076°34'0 0.0
2017-Dec-01 09:30N 39°15' W 076°34'0 0.0
2017-Dec-01 09:00N 39°15' W 076°34'0 0.0
2017-Dec-01 08:30N 39°15' W 076°34'0 0.0
2017-Dec-01 08:00N 39°15' W 076°34'0 0.0
2017-Dec-01 07:30N 39°15' W 076°34'0 0.0
2017-Dec-01 07:00N 39°15' W 076°34'0 0.0
2017-Dec-01 06:30N 39°15' W 076°34'0 0.0
2017-Dec-01 06:00N 39°15' W 076°34'0 0.0
2017-Dec-01 05:30N 39°15' W 076°34'0 0.0
2017-Dec-01 05:00N 39°15' W 076°34'0 0.0
2017-Dec-01 04:30N 39°15' W 076°34'0 0.0
2017-Dec-01 04:00N 39°15' W 076°34'0 0.0
2017-Dec-01 03:30N 39°15' W 076°34'0 0.0
2017-Dec-01 03:00N 39°15' W 076°34'0 0.0
2017-Dec-01 02:30N 39°15' W 076°34'0 0.0
2017-Dec-01 02:00N 39°15' W 076°34'0 0.0
2017-Dec-01 01:30N 39°15' W 076°34'0 0.0
2017-Dec-01 01:00N 39°15' W 076°34'0 0.0
2017-Dec-01 00:30N 39°15' W 076°34'0 0.0
2017-Dec-01 00:00N 39°15' W 076°34'0 0.0
2017-Nov-30 23:30N 39°15' W 076°34'0 0.0
2017-Nov-30 23:00N 39°15' W 076°34'0 0.0
2017-Nov-30 22:30N 39°15' W 076°34'0 0.0
2017-Nov-30 22:00N 39°15' W 076°34'0 0.0
2017-Nov-30 21:30N 39°15' W 076°34'0 0.0
2017-Nov-30 21:00N 39°15' W 076°34'0 0.0
2017-Nov-30 20:30N 39°15' W 076°34'0 0.0
2017-Nov-30 20:00N 39°15' W 076°34'0 0.0
2017-Nov-30 19:30N 39°15' W 076°34'0 0.0
2017-Nov-30 19:00N 39°15' W 076°34'0 0.0
2017-Nov-30 18:30N 39°15' W 076°34'0 0.0
2017-Nov-30 18:00N 39°15' W 076°34'0 0.0
2017-Nov-30 17:30N 39°15' W 076°34'0 0.0
2017-Nov-30 17:00N 39°15' W 076°34'0 0.0
2017-Nov-30 16:30N 39°15' W 076°34'0 0.0
2017-Nov-30 16:00N 39°15' W 076°34'0 0.0
2017-Nov-30 15:30N 39°15' W 076°34'0 0.0
2017-Nov-30 15:00N 39°15' W 076°34'0 0.0
2017-Nov-30 14:30N 39°15' W 076°34'0 0.0
2017-Nov-30 13:59N 39°15' W 076°34'0 0.0
2017-Nov-30 13:30N 39°15' W 076°34'0 0.0
2017-Nov-30 13:00N 39°15' W 076°34'0 0.0
2017-Nov-30 12:30N 39°15' W 076°34'0 0.0
2017-Nov-30 12:00N 39°15' W 076°34'0 0.4
2017-Nov-30 11:30N 39°15' W 076°34'1 0.6
2017-Nov-30 09:39N 39°14' W 076°33'0 0.0
2017-Nov-30 09:12N 39°14' W 076°33'0 0.1
2017-Nov-30 08:54N 39°14' W 076°33'0 0.0
2017-Nov-30 08:30N 39°14' W 076°33'0 0.0
2017-Nov-30 07:48N 39°15' W 076°33'0 0.1
2017-Nov-30 07:18N 39°15' W 076°33'0 0.0
2017-Nov-30 07:00N 39°15' W 076°33'0 0.1
2017-Nov-30 06:30N 39°14' W 076°33'0 0.1
2017-Nov-30 05:21N 39°14' W 076°33'0 0.0
2017-Nov-30 05:00N 39°14' W 076°33'0 0.1
2017-Nov-30 04:18N 39°14' W 076°33'1 1.9
2017-Nov-30 04:00N 39°14' W 076°33'4 7.5
2017-Nov-30 03:30N 39°12' W 076°29'611.2
2017-Nov-30 02:58N 39°07' W 076°24'612.4
2017-Nov-30 02:30N 39°01' W 076°23'6 9.9
2017-Nov-30 01:53N 38°56' W 076°25'0 0.0
2017-Nov-29 14:36N 38°56' W 076°25'0 0.1
2017-Nov-29 14:12N 38°56' W 076°25'0 0.2
2017-Nov-29 13:57N 38°56' W 076°25'0 0.2
2017-Nov-29 13:27N 38°56' W 076°25'0 0.0
2017-Nov-29 08:57N 38°56' W 076°25'0 0.0
2017-Nov-28 12:15N 38°56' W 076°25'0 0.0
2017-Nov-28 12:00N 38°56' W 076°25'0 0.0
2017-Nov-28 11:30N 38°56' W 076°25'0 0.0
2017-Nov-28 10:51N 38°56' W 076°25'0 0.0
2017-Nov-28 10:27N 38°56' W 076°25'0 0.1
2017-Nov-28 07:57N 38°56' W 076°25'0 0.2
2017-Nov-28 07:24N 38°56' W 076°25'0 0.0
2017-Nov-28 07:00N 38°56' W 076°25'0 0.0
2017-Nov-28 06:09N 38°56' W 076°25'0 0.0
2017-Nov-28 06:00N 38°56' W 076°25'0 0.0
2017-Nov-28 05:27N 38°56' W 076°25'11810.8
2017-Nov-27 18:30N 36°60' W 076°02'611.3
2017-Nov-27 18:00N 36°57' W 075°56'3 6.7
2017-Nov-27 17:30N 36°57' W 075°51'  
Track history (hours):
 
Tides and Currents Weather Stations Pressure Air Temp Water Temp Dewpoint Dewpoint Depression Visibility Wind Speed Wind Dir Waves Ship Positions

Junior

Last reported at 2017-Dec-03 12:42 UTC. Time now 2017-Dec-14 17:12 UTC.
Position N 36°52' W 075°51'.
Warning: this ship's position is 11 days out of date.

Length 229 m; draft 11.5 m.

Type: Ship. MMSI: 636015637.

Date/timePositionNaut miles runAvg speedWind from/ knotsBaromVisibWave heightAir tempDewpointWater temp
2017-Dec-03 12:42N 36°52' W 075°51'2 9.3
2017-Dec-03 12:27N 36°53' W 075°53'9 8.6
2017-Dec-03 11:24N 36°57' W 076°03'1 0.0
2017-Dec-02 06:15N 36°57' W 076°02'2 4.9
2017-Dec-02 05:50N 36°58' W 075°60'12512.8
2017-Dec-01 20:06N 39°01' W 076°23'911.7
2017-Dec-01 19:19N 39°10' W 076°26'310.9
2017-Dec-01 19:00N 39°12' W 076°30'5 9.0
2017-Dec-01 18:30N 39°15' W 076°34'0 0.9
2017-Dec-01 18:00N 39°15' W 076°34'0 0.0
2017-Dec-01 17:30N 39°15' W 076°34'0 0.0
2017-Dec-01 17:00N 39°15' W 076°34'0 0.0
2017-Dec-01 16:30N 39°15' W 076°34'0 0.0
2017-Dec-01 16:00N 39°15' W 076°34'0 0.0
2017-Dec-01 15:30N 39°15' W 076°34'0 0.0
2017-Dec-01 14:57N 39°15' W 076°34'0 0.0
2017-Dec-01 14:30N 39°15' W 076°34'0 0.0
2017-Dec-01 14:00N 39°15' W 076°34'0 0.0
2017-Dec-01 13:27N 39°15' W 076°34'0 0.0
2017-Dec-01 13:00N 39°15' W 076°34'0 0.0
2017-Dec-01 12:30N 39°15' W 076°34'0 0.0
2017-Dec-01 12:00N 39°15' W 076°34'0 0.0
2017-Dec-01 11:30N 39°15' W 076°34'0 0.0
2017-Dec-01 10:57N 39°15' W 076°34'0 0.0
2017-Dec-01 10:30N 39°15' W 076°34'0 0.0
2017-Dec-01 10:00N 39°15' W 076°34'0 0.0
2017-Dec-01 09:30N 39°15' W 076°34'0 0.0
2017-Dec-01 09:00N 39°15' W 076°34'0 0.0
2017-Dec-01 08:30N 39°15' W 076°34'0 0.0
2017-Dec-01 08:00N 39°15' W 076°34'0 0.0
2017-Dec-01 07:30N 39°15' W 076°34'0 0.0
2017-Dec-01 07:00N 39°15' W 076°34'0 0.0
2017-Dec-01 06:30N 39°15' W 076°34'0 0.0
2017-Dec-01 06:00N 39°15' W 076°34'0 0.0
2017-Dec-01 05:30N 39°15' W 076°34'0 0.0
2017-Dec-01 05:00N 39°15' W 076°34'0 0.0
2017-Dec-01 04:30N 39°15' W 076°34'0 0.0
2017-Dec-01 04:00N 39°15' W 076°34'0 0.0
2017-Dec-01 03:30N 39°15' W 076°34'0 0.0
2017-Dec-01 03:00N 39°15' W 076°34'0 0.0
2017-Dec-01 02:30N 39°15' W 076°34'0 0.0
2017-Dec-01 02:00N 39°15' W 076°34'0 0.0
2017-Dec-01 01:30N 39°15' W 076°34'0 0.0
2017-Dec-01 01:00N 39°15' W 076°34'0 0.0
2017-Dec-01 00:30N 39°15' W 076°34'0 0.0
2017-Dec-01 00:00N 39°15' W 076°34'0 0.0
2017-Nov-30 23:30N 39°15' W 076°34'0 0.0
2017-Nov-30 23:00N 39°15' W 076°34'0 0.0
2017-Nov-30 22:30N 39°15' W 076°34'0 0.0
2017-Nov-30 22:00N 39°15' W 076°34'0 0.0
2017-Nov-30 21:30N 39°15' W 076°34'0 0.0
2017-Nov-30 21:00N 39°15' W 076°34'0 0.0
2017-Nov-30 20:30N 39°15' W 076°34'0 0.0
2017-Nov-30 20:00N 39°15' W 076°34'0 0.0
2017-Nov-30 19:30N 39°15' W 076°34'0 0.0
2017-Nov-30 19:00N 39°15' W 076°34'0 0.0
2017-Nov-30 18:30N 39°15' W 076°34'0 0.0
2017-Nov-30 18:00N 39°15' W 076°34'0 0.0
2017-Nov-30 17:30N 39°15' W 076°34'0 0.0
2017-Nov-30 17:00N 39°15' W 076°34'0 0.0
2017-Nov-30 16:30N 39°15' W 076°34'0 0.0
2017-Nov-30 16:00N 39°15' W 076°34'0 0.0
2017-Nov-30 15:30N 39°15' W 076°34'0 0.0
2017-Nov-30 15:00N 39°15' W 076°34'0 0.0
2017-Nov-30 14:30N 39°15' W 076°34'0 0.0
2017-Nov-30 13:59N 39°15' W 076°34'0 0.0
2017-Nov-30 13:30N 39°15' W 076°34'0 0.0
2017-Nov-30 13:00N 39°15' W 076°34'0 0.0
2017-Nov-30 12:30N 39°15' W 076°34'0 0.0
2017-Nov-30 12:00N 39°15' W 076°34'0 0.4
2017-Nov-30 11:30N 39°15' W 076°34'1 0.6
2017-Nov-30 09:39N 39°14' W 076°33'0 0.0
2017-Nov-30 09:12N 39°14' W 076°33'0 0.1
2017-Nov-30 08:54N 39°14' W 076°33'0 0.0
2017-Nov-30 08:30N 39°14' W 076°33'0 0.0
2017-Nov-30 07:48N 39°15' W 076°33'0 0.1
2017-Nov-30 07:18N 39°15' W 076°33'0 0.0
2017-Nov-30 07:00N 39°15' W 076°33'0 0.1
2017-Nov-30 06:30N 39°14' W 076°33'0 0.1
2017-Nov-30 05:21N 39°14' W 076°33'0 0.0
2017-Nov-30 05:00N 39°14' W 076°33'0 0.1
2017-Nov-30 04:18N 39°14' W 076°33'1 1.9
2017-Nov-30 04:00N 39°14' W 076°33'4 7.5
2017-Nov-30 03:30N 39°12' W 076°29'611.2
2017-Nov-30 02:58N 39°07' W 076°24'612.4
2017-Nov-30 02:30N 39°01' W 076°23'6 9.9
2017-Nov-30 01:53N 38°56' W 076°25'0 0.0
2017-Nov-29 14:36N 38°56' W 076°25'0 0.1
2017-Nov-29 14:12N 38°56' W 076°25'0 0.2
2017-Nov-29 13:57N 38°56' W 076°25'0 0.2
2017-Nov-29 13:27N 38°56' W 076°25'0 0.0
2017-Nov-29 08:57N 38°56' W 076°25'0 0.0
2017-Nov-28 12:15N 38°56' W 076°25'0 0.0
2017-Nov-28 12:00N 38°56' W 076°25'0 0.0
2017-Nov-28 11:30N 38°56' W 076°25'0 0.0
2017-Nov-28 10:51N 38°56' W 076°25'0 0.0
2017-Nov-28 10:27N 38°56' W 076°25'0 0.1
2017-Nov-28 07:57N 38°56' W 076°25'0 0.2
2017-Nov-28 07:24N 38°56' W 076°25'0 0.0
2017-Nov-28 07:00N 38°56' W 076°25'0 0.0
2017-Nov-28 06:09N 38°56' W 076°25'0 0.0
2017-Nov-28 06:00N 38°56' W 076°25'0 0.0
2017-Nov-28 05:27N 38°56' W 076°25'11810.8
2017-Nov-27 18:30N 36°60' W 076°02'611.3
2017-Nov-27 18:00N 36°57' W 075°56'3 6.7
2017-Nov-27 17:30N 36°57' W 075°51'  

Dump ship's entire track history